createdAt,value
2022-09-24T00:00:24.017Z,34.99
2022-09-24T00:00:55.405Z,35.09
2022-09-24T00:01:26.863Z,35.51
2022-09-24T00:01:58.388Z,35.17
2022-09-24T00:02:29.897Z,34.83
2022-09-24T00:03:01.505Z,34.97
2022-09-24T00:03:32.913Z,35.12
2022-09-24T00:04:04.390Z,35.48
2022-09-24T00:04:35.803Z,35.13
2022-09-24T00:05:07.214Z,35.18
2022-09-24T00:05:38.610Z,35.48
2022-09-24T00:06:09.993Z,34.65
2022-09-24T00:06:41.403Z,34.91
2022-09-24T00:07:13.026Z,35.16
2022-09-24T00:07:44.418Z,35.25
2022-09-24T00:08:15.904Z,35.29
2022-09-24T00:08:47.288Z,35.37
2022-09-24T00:09:18.673Z,34.93
2022-09-24T00:09:50.077Z,35.69
2022-09-24T00:10:21.466Z,35.31
2022-09-24T00:10:52.849Z,35.17
2022-09-24T00:11:24.252Z,35.10
2022-09-24T00:11:55.641Z,34.89
2022-09-24T00:12:27.032Z,34.96
2022-09-24T00:12:58.416Z,34.96
2022-09-24T00:13:29.957Z,35.32
2022-09-24T00:14:01.391Z,34.90
2022-09-24T00:14:32.793Z,35.33
2022-09-24T00:15:04.185Z,34.82
2022-09-24T00:15:35.596Z,35.35
2022-09-24T00:16:07.056Z,34.88
2022-09-24T00:16:38.546Z,35.11
2022-09-24T00:17:09.972Z,35.04
2022-09-24T00:17:41.377Z,34.96
2022-09-24T00:18:12.766Z,35.40
2022-09-24T00:18:44.235Z,35.08
2022-09-24T00:19:15.647Z,35.34
2022-09-24T00:19:47.037Z,34.88
2022-09-24T00:20:18.440Z,35.08
2022-09-24T00:20:49.829Z,34.83
2022-09-24T00:21:21.229Z,35.07
2022-09-24T00:21:52.617Z,35.13
2022-09-24T00:22:24.008Z,35.30
2022-09-24T00:22:55.422Z,35.00
2022-09-24T00:23:26.825Z,35.22
2022-09-24T00:23:58.224Z,35.06
2022-09-24T00:24:29.609Z,35.05
2022-09-24T00:25:00.993Z,34.91
2022-09-24T00:25:32.380Z,35.12
2022-09-24T00:26:03.775Z,35.13
2022-09-24T00:26:35.162Z,35.54
2022-09-24T00:27:06.594Z,34.93
2022-09-24T00:27:38.013Z,34.92
2022-09-24T00:28:09.401Z,35.35
2022-09-24T00:28:40.792Z,35.45
2022-09-24T00:29:12.228Z,35.33
2022-09-24T00:29:43.632Z,35.07
2022-09-24T00:30:15.021Z,34.80
2022-09-24T00:30:46.424Z,34.99
2022-09-24T00:31:17.850Z,35.17
2022-09-24T00:31:49.381Z,35.20
2022-09-24T00:32:20.837Z,34.83
2022-09-24T00:32:52.225Z,35.05
2022-09-24T00:33:23.609Z,35.25
2022-09-24T00:33:55.003Z,34.92
2022-09-24T00:34:26.509Z,35.14
2022-09-24T00:34:58.125Z,35.41
2022-09-24T00:35:29.533Z,34.91
2022-09-24T00:36:00.998Z,35.03
2022-09-24T00:36:32.389Z,35.17
2022-09-24T00:37:03.785Z,35.24
2022-09-24T00:37:35.176Z,35.34
2022-09-24T00:38:06.575Z,34.92
2022-09-24T00:38:37.995Z,35.12
2022-09-24T00:39:09.409Z,34.78
2022-09-24T00:39:40.853Z,34.97
2022-09-24T00:40:12.302Z,34.93
2022-09-24T00:40:43.822Z,35.35
2022-09-24T00:41:15.275Z,35.00
2022-09-24T00:41:46.665Z,35.55
2022-09-24T00:42:18.068Z,35.14
2022-09-24T00:42:49.482Z,35.11
2022-09-24T00:43:20.992Z,35.13
2022-09-24T00:43:52.428Z,35.18
2022-09-24T00:44:23.813Z,35.15
2022-09-24T00:44:55.225Z,35.03
2022-09-24T00:45:26.609Z,35.30
2022-09-24T00:45:58.186Z,35.51
2022-09-24T00:46:29.650Z,34.76
2022-09-24T00:47:01.245Z,35.04
2022-09-24T00:47:32.677Z,34.97
2022-09-24T00:48:04.077Z,35.46
2022-09-24T00:48:35.473Z,35.06
2022-09-24T00:49:06.886Z,34.78
2022-09-24T00:49:38.274Z,35.13
2022-09-24T00:50:09.721Z,35.07
2022-09-24T00:50:41.101Z,34.92
2022-09-24T00:51:12.484Z,35.06
2022-09-24T00:51:43.891Z,34.91
2022-09-24T00:52:15.313Z,34.72
2022-09-24T00:52:46.705Z,35.36
2022-09-24T00:53:18.108Z,35.22
2022-09-24T00:53:49.501Z,34.79
2022-09-24T00:54:20.895Z,35.62
2022-09-24T00:54:52.281Z,34.90
2022-09-24T00:55:23.802Z,34.68
2022-09-24T00:55:55.208Z,35.23
2022-09-24T00:56:26.588Z,34.57
2022-09-24T00:56:58.069Z,34.64
2022-09-24T00:57:29.472Z,34.69
2022-09-24T00:58:00.866Z,35.27
2022-09-24T00:58:32.249Z,35.30
2022-09-24T00:59:03.633Z,35.38
2022-09-24T00:59:35.017Z,34.80
2022-09-24T01:00:06.404Z,34.88
2022-09-24T01:00:37.964Z,35.16
2022-09-24T01:01:09.445Z,35.03
2022-09-24T01:01:40.958Z,35.19
2022-09-24T01:02:12.442Z,35.34
2022-09-24T01:02:43.842Z,35.51
2022-09-24T01:03:15.233Z,35.33
2022-09-24T01:03:46.685Z,34.98
2022-09-24T01:04:18.082Z,35.42
2022-09-24T01:04:53.175Z,34.97
2022-09-24T01:05:27.206Z,35.40
2022-09-24T01:05:58.617Z,35.49
2022-09-24T01:06:30.009Z,35.22
2022-09-24T01:07:01.392Z,35.05
2022-09-24T01:07:32.800Z,35.03
2022-09-24T01:08:04.193Z,35.59
2022-09-24T01:08:35.577Z,35.37
2022-09-24T01:09:06.962Z,35.17
2022-09-24T01:09:38.349Z,35.30
2022-09-24T01:10:09.737Z,35.42
2022-09-24T01:10:41.252Z,35.32
2022-09-24T01:11:12.643Z,35.11
2022-09-24T01:11:44.038Z,35.54
2022-09-24T01:12:15.425Z,35.17
2022-09-24T01:12:46.820Z,35.51
2022-09-24T01:13:18.203Z,35.35
2022-09-24T01:13:49.594Z,35.33
2022-09-24T01:14:20.981Z,35.50
2022-09-24T01:14:52.368Z,35.54
2022-09-24T01:15:23.752Z,35.29
2022-09-24T01:15:55.267Z,35.51
2022-09-24T01:16:26.837Z,35.32
2022-09-24T01:16:58.289Z,35.30
2022-09-24T01:17:29.680Z,35.31
2022-09-24T01:18:01.075Z,35.23
2022-09-24T01:18:32.476Z,35.23
2022-09-24T01:19:03.864Z,35.21
2022-09-24T01:19:35.257Z,35.03
2022-09-24T01:20:06.700Z,35.44
2022-09-24T01:20:38.093Z,35.01
2022-09-24T01:21:09.485Z,34.82
2022-09-24T01:21:40.877Z,35.38
2022-09-24T01:22:12.269Z,35.19
2022-09-24T01:22:43.663Z,35.21
2022-09-24T01:23:15.050Z,35.70
2022-09-24T01:23:48.727Z,35.34
2022-09-24T01:24:20.596Z,35.40
2022-09-24T01:24:52.021Z,34.95
2022-09-24T01:25:23.427Z,35.22
2022-09-24T01:25:54.822Z,35.40
2022-09-24T01:26:26.234Z,35.33
2022-09-24T01:26:57.631Z,35.57
2022-09-24T01:27:29.061Z,35.10
2022-09-24T01:28:00.449Z,35.27
2022-09-24T01:28:31.837Z,35.59
2022-09-24T01:29:03.259Z,35.07
2022-09-24T01:29:34.645Z,35.14
2022-09-24T01:30:06.057Z,35.23
2022-09-24T01:30:37.481Z,35.30
2022-09-24T01:31:08.919Z,35.46
2022-09-24T01:31:40.396Z,35.47
2022-09-24T01:32:11.831Z,35.09
2022-09-24T01:32:43.217Z,35.37
2022-09-24T01:33:14.677Z,35.34
2022-09-24T01:33:46.066Z,35.25
2022-09-24T01:34:17.448Z,35.14
2022-09-24T01:34:48.853Z,35.44
2022-09-24T01:35:20.354Z,35.13
2022-09-24T01:35:51.736Z,35.22
2022-09-24T01:36:23.134Z,35.36
2022-09-24T01:36:54.525Z,35.33
2022-09-24T01:37:25.909Z,35.50
2022-09-24T01:37:57.310Z,35.17
2022-09-24T01:38:28.725Z,35.22
2022-09-24T01:39:00.135Z,35.24
2022-09-24T01:39:31.520Z,35.58
2022-09-24T01:40:02.905Z,35.13
2022-09-24T01:40:34.346Z,34.98
2022-09-24T01:41:05.780Z,35.28
2022-09-24T01:41:37.228Z,35.21
2022-09-24T01:42:08.613Z,35.52
2022-09-24T01:42:40.027Z,35.42
2022-09-24T01:43:11.413Z,35.03
2022-09-24T01:43:42.815Z,35.49
2022-09-24T01:44:14.206Z,35.45
2022-09-24T01:44:45.616Z,35.31
2022-09-24T01:45:17.024Z,35.13
2022-09-24T01:45:48.553Z,34.96
2022-09-24T01:46:20.049Z,35.39
2022-09-24T01:46:51.609Z,35.63
2022-09-24T01:47:23.033Z,35.02
2022-09-24T01:47:54.444Z,35.43
2022-09-24T01:48:25.833Z,35.36
2022-09-24T01:48:57.217Z,35.40
2022-09-24T01:49:28.605Z,35.50
2022-09-24T01:49:59.990Z,35.29
2022-09-24T01:50:31.387Z,35.23
2022-09-24T01:51:02.895Z,35.97
2022-09-24T01:51:34.282Z,35.77
2022-09-24T01:52:05.672Z,35.34
2022-09-24T01:52:37.113Z,35.69
2022-09-24T01:53:08.501Z,35.80
2022-09-24T01:53:39.895Z,35.18
2022-09-24T01:54:11.291Z,34.79
2022-09-24T01:54:42.682Z,35.27
2022-09-24T01:55:14.088Z,35.64
2022-09-24T01:55:45.494Z,34.96
2022-09-24T01:56:16.960Z,35.10
2022-09-24T01:56:48.351Z,35.20
2022-09-24T01:57:19.751Z,36.01
2022-09-24T01:57:51.159Z,35.16
2022-09-24T01:58:22.549Z,35.22
2022-09-24T01:58:53.931Z,35.83
2022-09-24T01:59:25.334Z,35.26
2022-09-24T01:59:56.726Z,35.08
2022-09-24T02:00:28.250Z,35.46
2022-09-24T02:00:59.758Z,35.45
2022-09-24T02:01:31.241Z,35.19
2022-09-24T02:02:02.665Z,35.36
2022-09-24T02:02:34.106Z,35.36
2022-09-24T02:03:05.496Z,35.20
2022-09-24T02:03:36.913Z,35.25
2022-09-24T02:04:08.327Z,35.39
2022-09-24T02:04:39.772Z,35.68
2022-09-24T02:05:11.163Z,35.38
2022-09-24T02:05:42.558Z,35.51
2022-09-24T02:06:13.949Z,35.43
2022-09-24T02:06:45.492Z,35.46
2022-09-24T02:07:16.883Z,35.52
2022-09-24T02:07:48.277Z,35.17
2022-09-24T02:08:19.661Z,35.70
2022-09-24T02:08:51.050Z,35.69
2022-09-24T02:09:22.435Z,35.38
2022-09-24T02:09:53.826Z,35.44
2022-09-24T02:10:25.216Z,35.81
2022-09-24T02:10:56.600Z,35.20
2022-09-24T02:11:28.005Z,35.40
2022-09-24T02:11:59.451Z,35.46
2022-09-24T02:12:30.840Z,35.41
2022-09-24T02:13:02.227Z,35.60
2022-09-24T02:13:33.603Z,35.23
2022-09-24T02:14:05.063Z,35.52
2022-09-24T02:14:36.522Z,35.53
2022-09-24T02:15:07.912Z,35.54
2022-09-24T02:15:39.343Z,35.83
2022-09-24T02:16:10.794Z,35.19
2022-09-24T02:16:42.234Z,35.23
2022-09-24T02:17:13.714Z,35.70
2022-09-24T02:17:45.100Z,35.38
2022-09-24T02:18:16.494Z,35.73
2022-09-24T02:18:47.888Z,35.68
2022-09-24T02:19:19.288Z,35.47
2022-09-24T02:19:50.798Z,35.24
2022-09-24T02:20:22.205Z,35.41
2022-09-24T02:20:53.597Z,35.77
2022-09-24T02:21:24.985Z,35.59
2022-09-24T02:21:56.388Z,35.33
2022-09-24T02:22:27.780Z,35.16
2022-09-24T02:22:59.169Z,35.78
2022-09-24T02:23:30.565Z,35.34
2022-09-24T02:24:01.949Z,35.27
2022-09-24T02:24:33.338Z,35.50
2022-09-24T02:25:04.853Z,35.84
2022-09-24T02:25:36.255Z,35.72
2022-09-24T02:26:07.644Z,35.51
2022-09-24T02:26:39.044Z,35.48
2022-09-24T02:27:10.428Z,35.41
2022-09-24T02:27:41.833Z,35.76
2022-09-24T02:28:13.221Z,35.61
2022-09-24T02:28:44.611Z,35.26
2022-09-24T02:29:15.997Z,35.74
2022-09-24T02:29:47.390Z,35.59
2022-09-24T02:30:18.961Z,35.76
2022-09-24T02:30:50.362Z,35.99
2022-09-24T02:31:21.811Z,35.63
2022-09-24T02:31:53.364Z,35.30
2022-09-24T02:32:24.782Z,35.69
2022-09-24T02:32:56.174Z,35.62
2022-09-24T02:33:27.589Z,35.62
2022-09-24T02:33:58.989Z,35.86
2022-09-24T02:34:30.393Z,35.45
2022-09-24T02:35:01.797Z,35.44
2022-09-24T02:35:33.281Z,35.38
2022-09-24T02:36:04.691Z,35.47
2022-09-24T02:36:36.084Z,35.38
2022-09-24T02:37:07.473Z,35.62
2022-09-24T02:37:38.861Z,35.45
2022-09-24T02:38:10.249Z,35.22
2022-09-24T02:38:41.637Z,35.52
2022-09-24T02:39:13.020Z,35.56
2022-09-24T02:39:44.412Z,35.52
2022-09-24T02:40:15.838Z,35.66
2022-09-24T02:40:47.333Z,35.63
2022-09-24T02:41:18.789Z,35.89
2022-09-24T02:41:50.185Z,35.99
2022-09-24T02:42:21.599Z,35.34
2022-09-24T02:42:53.013Z,35.98
2022-09-24T02:43:24.421Z,35.36
2022-09-24T02:43:55.835Z,35.86
2022-09-24T02:44:27.244Z,35.62
2022-09-24T02:44:58.657Z,35.93
2022-09-24T02:45:30.036Z,35.70
2022-09-24T02:46:01.567Z,35.78
2022-09-24T02:46:33.026Z,36.01
2022-09-24T02:47:04.494Z,35.64
2022-09-24T02:47:35.884Z,35.50
2022-09-24T02:48:07.277Z,36.02
2022-09-24T02:48:38.730Z,35.77
2022-09-24T02:49:10.140Z,35.62
2022-09-24T02:49:41.527Z,35.80
2022-09-24T02:50:12.910Z,35.77
2022-09-24T02:50:44.300Z,36.00
2022-09-24T02:51:15.774Z,35.88
2022-09-24T02:51:47.156Z,35.57
2022-09-24T02:52:18.544Z,35.67
2022-09-24T02:52:49.948Z,35.60
2022-09-24T02:53:21.347Z,36.03
2022-09-24T02:53:52.732Z,35.97
2022-09-24T02:54:24.125Z,35.70
2022-09-24T02:54:55.536Z,35.64
2022-09-24T02:55:26.922Z,35.42
2022-09-24T02:55:58.325Z,35.53
2022-09-24T02:56:29.827Z,35.91
2022-09-24T02:57:01.221Z,35.71
2022-09-24T02:57:32.619Z,35.57
2022-09-24T02:58:04.025Z,36.02
2022-09-24T02:58:35.409Z,35.84
2022-09-24T02:59:06.818Z,35.74
2022-09-24T02:59:38.229Z,35.96
2022-09-24T03:00:09.630Z,36.17
2022-09-24T03:00:41.081Z,35.69
2022-09-24T03:01:12.481Z,35.87
2022-09-24T03:01:44.089Z,35.75
2022-09-24T03:02:15.604Z,36.01
2022-09-24T03:02:47.190Z,35.74
2022-09-24T03:03:18.643Z,35.70
2022-09-24T03:03:50.051Z,35.51
2022-09-24T03:04:21.479Z,35.88
2022-09-24T03:04:52.870Z,35.88
2022-09-24T03:05:24.274Z,36.07
2022-09-24T03:05:55.679Z,35.85
2022-09-24T03:06:27.066Z,35.87
2022-09-24T03:06:58.561Z,35.78
2022-09-24T03:07:29.973Z,35.74
2022-09-24T03:08:01.361Z,35.92
2022-09-24T03:08:32.745Z,35.84
2022-09-24T03:09:04.149Z,36.29
2022-09-24T03:09:35.583Z,35.60
2022-09-24T03:10:06.980Z,36.31
2022-09-24T03:10:38.393Z,36.17
2022-09-24T03:11:09.781Z,36.23
2022-09-24T03:11:41.166Z,35.60
2022-09-24T03:12:12.612Z,35.89
2022-09-24T03:12:44.012Z,36.08
2022-09-24T03:13:15.400Z,35.70
2022-09-24T03:13:46.788Z,35.83
2022-09-24T03:14:18.172Z,35.87
2022-09-24T03:14:49.551Z,35.80
2022-09-24T03:15:20.962Z,35.86
2022-09-24T03:15:52.420Z,36.01
2022-09-24T03:16:23.942Z,35.63
2022-09-24T03:16:55.364Z,35.80
2022-09-24T03:17:26.795Z,35.92
2022-09-24T03:17:58.178Z,36.08
2022-09-24T03:18:29.586Z,35.99
2022-09-24T03:19:00.976Z,35.93
2022-09-24T03:19:32.361Z,35.97
2022-09-24T03:20:03.761Z,36.11
2022-09-24T03:20:35.159Z,35.90
2022-09-24T03:21:06.564Z,35.76
2022-09-24T03:21:37.961Z,35.70
2022-09-24T03:22:09.361Z,36.24
2022-09-24T03:22:40.845Z,35.71
2022-09-24T03:23:12.248Z,36.02
2022-09-24T03:23:43.657Z,35.96
2022-09-24T03:24:15.059Z,36.23
2022-09-24T03:24:46.469Z,36.02
2022-09-24T03:25:17.888Z,35.73
2022-09-24T03:25:49.280Z,36.29
2022-09-24T03:26:20.707Z,36.40
2022-09-24T03:26:52.100Z,36.36
2022-09-24T03:27:23.572Z,35.97
2022-09-24T03:27:55.110Z,35.70
2022-09-24T03:28:26.515Z,35.62
2022-09-24T03:28:57.901Z,36.32
2022-09-24T03:29:29.287Z,35.76
2022-09-24T03:30:00.678Z,35.90
2022-09-24T03:30:32.070Z,35.97
2022-09-24T03:31:03.504Z,36.12
2022-09-24T03:31:35.001Z,36.00
2022-09-24T03:32:06.469Z,36.00
2022-09-24T03:32:37.852Z,35.98
2022-09-24T03:33:09.276Z,35.73
2022-09-24T03:33:40.662Z,35.91
2022-09-24T03:34:12.134Z,35.82
2022-09-24T03:34:43.575Z,36.36
2022-09-24T03:35:14.959Z,36.23
2022-09-24T03:35:46.348Z,36.12
2022-09-24T03:36:17.739Z,36.00
2022-09-24T03:36:49.127Z,35.98
2022-09-24T03:37:20.516Z,36.24
2022-09-24T03:37:51.910Z,35.88
2022-09-24T03:38:23.524Z,36.00
2022-09-24T03:38:54.916Z,36.29
2022-09-24T03:39:26.309Z,36.34
2022-09-24T03:39:57.701Z,36.04
2022-09-24T03:40:29.173Z,36.30
2022-09-24T03:41:00.596Z,36.05
2022-09-24T03:41:31.981Z,36.04
2022-09-24T03:42:03.382Z,35.82
2022-09-24T03:42:34.774Z,36.32
2022-09-24T03:43:06.159Z,36.38
2022-09-24T03:43:37.698Z,36.32
2022-09-24T03:44:09.134Z,36.37
2022-09-24T03:44:40.548Z,35.92
2022-09-24T03:45:11.936Z,35.91
2022-09-24T03:45:43.330Z,36.39
2022-09-24T03:46:14.771Z,36.01
2022-09-24T03:46:46.200Z,36.34
2022-09-24T03:47:17.647Z,36.03
2022-09-24T03:47:49.051Z,36.27
2022-09-24T03:48:20.444Z,36.08
2022-09-24T03:48:51.963Z,36.25
2022-09-24T03:49:23.359Z,36.17
2022-09-24T03:49:54.751Z,36.11
2022-09-24T03:50:26.144Z,36.17
2022-09-24T03:50:57.530Z,36.46
2022-09-24T03:51:28.923Z,35.96
2022-09-24T03:52:00.331Z,36.16
2022-09-24T03:52:31.738Z,36.35
2022-09-24T03:53:03.115Z,35.94
2022-09-24T03:53:34.519Z,36.07
2022-09-24T03:54:06.097Z,36.39
2022-09-24T03:54:37.526Z,36.11
2022-09-24T03:55:08.921Z,36.73
2022-09-24T03:55:40.313Z,36.59
2022-09-24T03:56:11.716Z,35.98
2022-09-24T03:56:43.117Z,35.90
2022-09-24T03:57:14.500Z,36.06
2022-09-24T03:57:45.913Z,36.28
2022-09-24T03:58:17.305Z,36.30
2022-09-24T03:58:48.689Z,36.11
2022-09-24T03:59:20.176Z,35.95
2022-09-24T03:59:51.587Z,36.17
2022-09-24T04:00:22.988Z,35.95
2022-09-24T04:00:54.409Z,36.00
2022-09-24T04:01:25.958Z,35.85
2022-09-24T04:01:57.477Z,36.27
2022-09-24T04:02:29.018Z,36.30
2022-09-24T04:03:00.536Z,36.52
2022-09-24T04:03:32.026Z,36.11
2022-09-24T04:04:03.413Z,36.08
2022-09-24T04:04:34.813Z,36.46
2022-09-24T04:05:06.211Z,36.00
2022-09-24T04:05:37.624Z,35.98
2022-09-24T04:06:09.061Z,36.42
2022-09-24T04:06:40.448Z,36.15
2022-09-24T04:07:11.838Z,36.00
2022-09-24T04:07:43.271Z,36.21
2022-09-24T04:08:14.659Z,36.15
2022-09-24T04:08:46.075Z,36.46
2022-09-24T04:09:17.493Z,36.54
2022-09-24T04:09:48.886Z,36.21
2022-09-24T04:10:20.289Z,36.08
2022-09-24T04:10:51.678Z,36.04
2022-09-24T04:11:23.121Z,36.49
2022-09-24T04:11:54.513Z,36.37
2022-09-24T04:12:25.910Z,36.38
2022-09-24T04:12:57.296Z,36.27
2022-09-24T04:13:28.686Z,36.29
2022-09-24T04:14:00.076Z,36.69
2022-09-24T04:14:31.466Z,36.47
2022-09-24T04:15:02.856Z,36.61
2022-09-24T04:15:34.254Z,36.65
2022-09-24T04:16:05.691Z,36.77
2022-09-24T04:16:37.346Z,36.84
2022-09-24T04:17:08.777Z,36.67
2022-09-24T04:17:40.178Z,36.57
2022-09-24T04:18:11.574Z,36.73
2022-09-24T04:18:42.963Z,36.39
2022-09-24T04:19:14.369Z,36.72
2022-09-24T04:19:45.752Z,36.32
2022-09-24T04:20:17.159Z,36.28
2022-09-24T04:20:48.621Z,36.61
2022-09-24T04:21:20.032Z,36.95
2022-09-24T04:21:51.545Z,35.98
2022-09-24T04:22:22.931Z,36.56
2022-09-24T04:22:54.317Z,36.73
2022-09-24T04:23:25.700Z,36.42
2022-09-24T04:23:57.110Z,36.29
2022-09-24T04:24:28.517Z,36.27
2022-09-24T04:24:59.913Z,37.11
2022-09-24T04:25:31.311Z,36.20
2022-09-24T04:26:02.692Z,36.47
2022-09-24T04:26:34.113Z,36.75
2022-09-24T04:27:05.610Z,36.72
2022-09-24T04:27:37.024Z,36.90
2022-09-24T04:28:08.430Z,36.72
2022-09-24T04:28:39.822Z,36.69
2022-09-24T04:29:11.207Z,36.88
2022-09-24T04:29:42.593Z,36.21
2022-09-24T04:30:14.000Z,37.14
2022-09-24T04:30:45.391Z,36.89
2022-09-24T04:31:16.882Z,36.99
2022-09-24T04:31:48.373Z,36.95
2022-09-24T04:32:19.828Z,36.63
2022-09-24T04:32:51.220Z,36.43
2022-09-24T04:33:22.609Z,37.17
2022-09-24T04:33:53.993Z,36.71
2022-09-24T04:34:25.374Z,36.43
2022-09-24T04:34:56.783Z,36.67
2022-09-24T04:35:28.175Z,36.67
2022-09-24T04:35:59.561Z,36.83
2022-09-24T04:36:30.950Z,36.63
2022-09-24T04:37:02.332Z,36.90
2022-09-24T04:37:33.776Z,36.74
2022-09-24T04:38:05.191Z,36.74
2022-09-24T04:38:36.596Z,36.47
2022-09-24T04:39:07.984Z,37.15
2022-09-24T04:39:39.376Z,36.53
2022-09-24T04:40:10.779Z,36.76
2022-09-24T04:40:42.243Z,37.13
2022-09-24T04:41:13.653Z,36.94
2022-09-24T04:41:45.042Z,37.08
2022-09-24T04:42:16.449Z,36.86
2022-09-24T04:42:47.886Z,36.82
2022-09-24T04:43:19.429Z,37.22
2022-09-24T04:43:50.877Z,36.60
2022-09-24T04:44:22.259Z,36.79
2022-09-24T04:44:56.149Z,37.03
2022-09-24T04:45:27.795Z,37.03
2022-09-24T04:45:59.228Z,36.76
2022-09-24T04:46:30.744Z,36.86
2022-09-24T04:47:02.153Z,36.84
2022-09-24T04:47:33.544Z,36.60
2022-09-24T04:48:05.236Z,36.58
2022-09-24T04:48:36.640Z,36.98
2022-09-24T04:49:08.078Z,37.18
2022-09-24T04:49:39.544Z,37.20
2022-09-24T04:50:10.930Z,36.98
2022-09-24T04:50:46.068Z,36.77
2022-09-24T04:51:17.949Z,37.05
2022-09-24T04:51:49.346Z,36.82
2022-09-24T04:52:20.752Z,36.93
2022-09-24T04:52:52.140Z,36.91
2022-09-24T04:53:23.588Z,37.10
2022-09-24T04:53:54.982Z,36.86
2022-09-24T04:54:26.402Z,36.87
2022-09-24T04:54:57.789Z,36.76
2022-09-24T04:55:29.182Z,36.63
2022-09-24T04:56:00.580Z,36.79
2022-09-24T04:56:31.969Z,36.92
2022-09-24T04:57:03.372Z,36.83
2022-09-24T04:57:34.755Z,36.46
2022-09-24T04:58:06.153Z,36.51
2022-09-24T04:58:37.650Z,36.70
2022-09-24T04:59:09.053Z,36.69
2022-09-24T04:59:40.464Z,36.75
2022-09-24T05:00:11.859Z,36.63
2022-09-24T05:00:43.273Z,36.63
2022-09-24T05:01:14.721Z,36.62
2022-09-24T05:01:46.265Z,37.01
2022-09-24T05:02:17.919Z,36.61
2022-09-24T05:02:49.499Z,36.34
2022-09-24T05:03:20.956Z,36.58
2022-09-24T05:03:52.457Z,36.71
2022-09-24T05:04:23.858Z,36.81
2022-09-24T05:04:55.249Z,36.58
2022-09-24T05:05:26.642Z,36.82
2022-09-24T05:05:58.068Z,36.29
2022-09-24T05:06:29.453Z,36.41
2022-09-24T05:07:00.853Z,36.82
2022-09-24T05:07:32.241Z,36.37
2022-09-24T05:08:03.713Z,36.05
2022-09-24T05:08:35.097Z,36.64
2022-09-24T05:09:10.370Z,36.54
2022-09-24T05:09:43.924Z,36.75
2022-09-24T05:10:15.317Z,36.56
2022-09-24T05:10:46.721Z,36.31
2022-09-24T05:11:18.103Z,36.56
2022-09-24T05:11:49.497Z,36.73
2022-09-24T05:12:20.986Z,36.70
2022-09-24T05:12:52.403Z,36.14
2022-09-24T05:13:23.820Z,36.62
2022-09-24T05:13:55.238Z,36.40
2022-09-24T05:14:26.628Z,36.42
2022-09-24T05:14:58.016Z,36.85
2022-09-24T05:15:29.417Z,36.42
2022-09-24T05:16:01.058Z,36.70
2022-09-24T05:16:32.876Z,36.44
2022-09-24T05:17:04.362Z,36.70
2022-09-24T05:17:35.754Z,36.94
2022-09-24T05:18:07.168Z,36.43
2022-09-24T05:18:38.687Z,36.46
2022-09-24T05:19:10.082Z,36.74
2022-09-24T05:19:41.492Z,36.57
2022-09-24T05:20:12.871Z,36.49
2022-09-24T05:20:44.263Z,36.99
2022-09-24T05:21:15.657Z,36.46
2022-09-24T05:21:47.072Z,36.71
2022-09-24T05:22:18.469Z,36.62
2022-09-24T05:22:49.872Z,36.45
2022-09-24T05:23:21.257Z,36.61
2022-09-24T05:23:52.753Z,36.62
2022-09-24T05:24:24.152Z,36.85
2022-09-24T05:24:55.544Z,36.31
2022-09-24T05:25:27.003Z,36.45
2022-09-24T05:25:58.401Z,36.52
2022-09-24T05:26:29.885Z,36.90
2022-09-24T05:27:01.277Z,36.73
2022-09-24T05:27:32.679Z,36.93
2022-09-24T05:28:04.144Z,36.74
2022-09-24T05:28:35.627Z,36.63
2022-09-24T05:29:07.083Z,36.30
2022-09-24T05:29:38.499Z,36.60
2022-09-24T05:30:09.887Z,36.60
2022-09-24T05:30:41.277Z,36.69
2022-09-24T05:31:12.701Z,36.60
2022-09-24T05:31:44.194Z,36.84
2022-09-24T05:32:15.642Z,37.05
2022-09-24T05:32:47.058Z,36.63
2022-09-24T05:33:18.542Z,36.74
2022-09-24T05:33:49.939Z,36.85
2022-09-24T05:34:21.332Z,36.79
2022-09-24T05:34:52.721Z,37.02
2022-09-24T05:35:24.145Z,36.17
2022-09-24T05:35:55.557Z,36.62
2022-09-24T05:36:26.965Z,36.60
2022-09-24T05:36:58.405Z,36.45
2022-09-24T05:37:29.830Z,36.34
2022-09-24T05:38:01.219Z,36.55
2022-09-24T05:38:32.674Z,36.89
2022-09-24T05:39:04.067Z,36.79
2022-09-24T05:39:35.486Z,36.82
2022-09-24T05:40:06.900Z,36.69
2022-09-24T05:40:38.391Z,36.48
2022-09-24T05:41:09.857Z,36.78
2022-09-24T05:41:41.253Z,36.29
2022-09-24T05:42:12.656Z,36.68
2022-09-24T05:42:44.054Z,36.90
2022-09-24T05:43:15.501Z,36.67
2022-09-24T05:43:46.891Z,36.84
2022-09-24T05:44:18.284Z,36.82
2022-09-24T05:44:52.237Z,36.32
2022-09-24T05:45:23.907Z,36.50
2022-09-24T05:45:55.312Z,36.44
2022-09-24T05:46:26.792Z,36.63
2022-09-24T05:46:58.287Z,36.51
2022-09-24T05:47:29.733Z,36.35
2022-09-24T05:48:01.117Z,36.97
2022-09-24T05:48:32.628Z,36.51
2022-09-24T05:49:04.024Z,36.58
2022-09-24T05:49:35.414Z,36.68
2022-09-24T05:50:06.803Z,36.43
2022-09-24T05:50:38.182Z,36.55
2022-09-24T05:51:09.574Z,36.34
2022-09-24T05:51:40.955Z,36.70
2022-09-24T05:52:12.341Z,36.84
2022-09-24T05:52:43.768Z,36.29
2022-09-24T05:53:15.156Z,36.44
2022-09-24T05:53:46.696Z,36.33
2022-09-24T05:54:18.105Z,36.49
2022-09-24T05:54:49.498Z,36.67
2022-09-24T05:55:20.944Z,36.15
2022-09-24T05:55:52.361Z,36.67
2022-09-24T05:56:23.760Z,36.82
2022-09-24T05:56:55.170Z,36.55
2022-09-24T05:57:26.559Z,36.83
2022-09-24T05:57:57.950Z,36.44
2022-09-24T05:58:29.335Z,36.51
2022-09-24T05:59:00.988Z,36.58
2022-09-24T05:59:32.517Z,36.29
2022-09-24T06:00:03.911Z,36.54
2022-09-24T06:00:35.302Z,36.70
2022-09-24T06:01:06.709Z,36.75
2022-09-24T06:01:38.187Z,36.53
2022-09-24T06:02:09.707Z,36.37
2022-09-24T06:02:41.225Z,36.59
2022-09-24T06:03:12.721Z,36.97
2022-09-24T06:03:44.256Z,36.57
2022-09-24T06:04:15.752Z,36.29
2022-09-24T06:04:47.156Z,36.48
2022-09-24T06:05:18.544Z,36.23
2022-09-24T06:05:49.961Z,36.20
2022-09-24T06:06:21.340Z,36.45
2022-09-24T06:06:52.731Z,36.51
2022-09-24T06:07:24.115Z,36.51
2022-09-24T06:07:55.505Z,36.25
2022-09-24T06:08:26.893Z,36.54
2022-09-24T06:08:58.299Z,36.68
2022-09-24T06:09:29.729Z,36.83
2022-09-24T06:10:01.124Z,36.36
2022-09-24T06:10:32.511Z,36.42
2022-09-24T06:11:03.901Z,36.37
2022-09-24T06:11:39.688Z,36.92
2022-09-24T06:12:11.705Z,36.89
2022-09-24T06:12:43.098Z,36.92
2022-09-24T06:13:14.515Z,37.00
2022-09-24T06:13:45.902Z,36.74
2022-09-24T06:14:17.325Z,36.94
2022-09-24T06:14:48.728Z,36.74
2022-09-24T06:15:20.122Z,36.84
2022-09-24T06:15:51.767Z,36.41
2022-09-24T06:16:23.227Z,36.78
2022-09-24T06:16:54.689Z,36.75
2022-09-24T06:17:26.077Z,36.66
2022-09-24T06:17:57.457Z,36.41
2022-09-24T06:18:28.839Z,36.74
2022-09-24T06:19:00.230Z,36.83
2022-09-24T06:19:31.703Z,37.03
2022-09-24T06:20:03.091Z,36.81
2022-09-24T06:20:34.485Z,36.87
2022-09-24T06:21:05.879Z,37.17
2022-09-24T06:21:37.271Z,37.02
2022-09-24T06:22:08.675Z,36.81
2022-09-24T06:22:40.069Z,36.55
2022-09-24T06:23:11.455Z,36.51
2022-09-24T06:23:42.845Z,36.95
2022-09-24T06:24:14.242Z,37.26
2022-09-24T06:24:45.651Z,36.83
2022-09-24T06:25:17.057Z,37.40
2022-09-24T06:25:48.449Z,36.85
2022-09-24T06:26:19.833Z,36.86
2022-09-24T06:26:51.221Z,36.69
2022-09-24T06:27:22.625Z,36.82
2022-09-24T06:27:54.008Z,36.87
2022-09-24T06:28:25.422Z,36.67
2022-09-24T06:29:00.762Z,37.42
2022-09-24T06:29:35.264Z,37.03
2022-09-24T06:30:06.689Z,37.07
2022-09-24T06:30:38.084Z,36.96
2022-09-24T06:31:09.523Z,37.04
2022-09-24T06:31:41.001Z,37.24
2022-09-24T06:32:12.457Z,37.26
2022-09-24T06:32:43.877Z,36.65
2022-09-24T06:33:15.292Z,36.86
2022-09-24T06:33:46.697Z,36.46
2022-09-24T06:34:18.084Z,36.83
2022-09-24T06:34:49.473Z,36.80
2022-09-24T06:35:20.948Z,36.81
2022-09-24T06:35:52.328Z,36.76
2022-09-24T06:36:23.714Z,36.93
2022-09-24T06:36:55.110Z,36.96
2022-09-24T06:37:26.504Z,37.22
2022-09-24T06:37:57.899Z,36.54
2022-09-24T06:38:29.289Z,36.76
2022-09-24T06:39:00.677Z,37.20
2022-09-24T06:39:32.235Z,36.41
2022-09-24T06:40:03.616Z,36.86
2022-09-24T06:40:37.393Z,37.28
2022-09-24T06:41:09.242Z,36.80
2022-09-24T06:41:40.695Z,37.07
2022-09-24T06:42:12.097Z,37.29
2022-09-24T06:42:43.508Z,37.30
2022-09-24T06:43:14.898Z,37.02
2022-09-24T06:43:46.294Z,37.30
2022-09-24T06:44:17.681Z,36.91
2022-09-24T06:44:49.073Z,37.22
2022-09-24T06:45:20.458Z,37.24